Parker, Idaho
Current Conditions -  °F | °C
As of 10:53 PM on Sunday 19 Oct 2014 (Local Time) from KRXE Reporting Station
Clear Clear  
Wind Chill: 37°   Ceiling: Unl
Heat Index: 40°   Visibility: 10mi
Dew Point: 31°   Wind: 5mph
Humidity: 70%   Direction: 50°NE
Pressure: 30.07"   Gusts: NA
Location:  43.96°N, 111.76°W
Report Text: KRXE 200453Z AUTO 05004KT 10SM CLR 04/M01 A3007 RMK AO2 SLP178 T00441006
Loading
Personal Weather Stations






























Interactive Weather Map New forecast layout! Learn more

10-Day Weather Forecast

Advertisements
Track Severe Weather on mobile